createdAt,value
2018-04-22T00:00:15.445Z,8.13
2018-04-22T00:02:43.649Z,7.03
2018-04-22T00:05:11.851Z,7.13
2018-04-22T00:07:40.058Z,7.27
2018-04-22T00:10:07.495Z,6.50
2018-04-22T00:12:34.945Z,6.80
2018-04-22T00:15:02.378Z,6.67
2018-04-22T00:17:30.577Z,7.10
2018-04-22T00:19:58.778Z,7.30
2018-04-22T00:22:26.982Z,6.57
2018-04-22T00:24:55.186Z,7.33
2018-04-22T00:27:22.634Z,7.40
2018-04-22T00:29:50.070Z,7.00
2018-04-22T00:32:17.515Z,6.57
2018-04-22T00:34:45.713Z,6.80
2018-04-22T00:37:13.918Z,6.77
2018-04-22T00:39:42.117Z,7.67
2018-04-22T00:42:10.313Z,7.90
2018-04-22T00:44:38.517Z,7.27
2018-04-22T00:47:06.721Z,6.73
2018-04-22T00:49:34.161Z,7.87
2018-04-22T00:52:01.599Z,7.80
2018-04-22T00:54:29.033Z,8.70
2018-04-22T00:56:56.475Z,6.90
2018-04-22T00:59:23.915Z,7.20
2018-04-22T01:01:52.113Z,7.60
2018-04-22T01:04:20.318Z,8.33
2018-04-22T01:06:48.513Z,7.77
2018-04-22T01:09:16.714Z,6.67
2018-04-22T01:11:44.914Z,6.73
2018-04-22T01:14:13.126Z,7.17
2018-04-22T01:16:40.558Z,7.63
2018-04-22T01:19:08.001Z,7.00
2018-04-22T01:21:35.433Z,7.43
2018-04-22T01:24:02.872Z,7.47
2018-04-22T01:26:30.316Z,8.60
2018-04-22T01:28:58.521Z,7.50
2018-04-22T01:31:26.709Z,7.23
2018-04-22T01:33:54.917Z,7.80
2018-04-22T01:36:22.354Z,7.93
2018-04-22T01:38:49.793Z,7.97
2018-04-22T01:41:17.230Z,7.50
2018-04-22T01:43:44.666Z,7.03
2018-04-22T01:46:12.106Z,7.10
2018-04-22T01:48:40.319Z,9.00
2018-04-22T01:51:08.515Z,7.20
2018-04-22T01:53:36.723Z,7.40
2018-04-22T01:56:04.154Z,8.17
2018-04-22T01:58:31.589Z,7.40
2018-04-22T02:00:59.024Z,7.90
2018-04-22T02:03:26.457Z,8.00
2018-04-22T02:05:53.889Z,8.97
2018-04-22T02:08:21.329Z,8.20
2018-04-22T02:10:48.761Z,7.80
2018-04-22T02:13:16.964Z,8.20
2018-04-22T02:15:45.157Z,7.70
2018-04-22T02:18:13.357Z,7.43
2018-04-22T02:20:41.558Z,8.43
2018-04-22T02:23:09.762Z,7.73
2018-04-22T02:25:37.956Z,7.70
2018-04-22T02:28:06.165Z,8.33
2018-04-22T02:30:34.381Z,8.30
2018-04-22T02:33:01.824Z,8.63
2018-04-22T02:35:29.253Z,8.37
2018-04-22T02:37:56.689Z,8.23
2018-04-22T02:40:24.886Z,7.60
2018-04-22T02:42:52.322Z,8.37
2018-04-22T02:45:19.753Z,8.70
2018-04-22T02:47:47.949Z,8.87
2018-04-22T02:50:16.163Z,9.23
2018-04-22T02:52:44.365Z,10.30
2018-04-22T02:55:11.802Z,9.67
2018-04-22T02:57:39.238Z,8.50
2018-04-22T03:00:06.677Z,8.77
2018-04-22T03:02:34.134Z,8.93
2018-04-22T03:05:01.574Z,8.43
2018-04-22T03:07:29.001Z,8.60
2018-04-22T03:09:56.441Z,9.97
2018-04-22T03:12:23.878Z,9.47
2018-04-22T03:14:51.322Z,9.30
2018-04-22T03:17:18.753Z,9.20
2018-04-22T03:19:46.966Z,9.93
2018-04-22T03:22:15.213Z,9.20
2018-04-22T03:24:43.373Z,9.43
2018-04-22T03:27:10.802Z,9.80
2018-04-22T03:29:38.247Z,8.40
2018-04-22T03:32:05.679Z,10.00
2018-04-22T03:34:33.117Z,9.57
2018-04-22T03:37:00.553Z,9.63
2018-04-22T03:39:28.753Z,9.97
2018-04-22T03:41:56.953Z,9.77
2018-04-22T03:44:25.149Z,8.90
2018-04-22T03:46:53.349Z,9.70
2018-04-22T03:49:21.557Z,10.80
2018-04-22T03:51:49.757Z,10.80
2018-04-22T03:54:17.199Z,9.80
2018-04-22T03:56:44.633Z,9.50
2018-04-22T03:59:12.069Z,10.10
2018-04-22T04:01:39.502Z,8.67
2018-04-22T04:04:06.952Z,9.33
2018-04-22T04:06:35.141Z,10.47
2018-04-22T04:09:03.348Z,10.67
2018-04-22T04:11:31.554Z,10.30
2018-04-22T04:13:59.757Z,9.50
2018-04-22T04:16:27.189Z,9.70
2018-04-22T04:19:06.625Z,9.80
2018-04-22T04:21:46.105Z,9.40
2018-04-22T04:27:41.540Z,9.63
2018-04-22T04:30:08.985Z,10.40
2018-04-22T04:32:36.414Z,10.90
2018-04-22T04:35:03.857Z,10.37
2018-04-22T04:37:31.293Z,10.70
2018-04-22T04:39:58.737Z,9.63
2018-04-22T04:42:26.171Z,10.90
2018-04-22T04:44:53.631Z,11.73
2018-04-22T04:47:21.067Z,11.00
2018-04-22T04:49:48.501Z,10.33
2018-04-22T04:52:15.943Z,8.73
2018-04-22T04:54:43.379Z,10.10
2018-04-22T04:57:10.817Z,9.73
2018-04-22T04:59:39.018Z,11.07
2018-04-22T05:02:07.221Z,10.43
2018-04-22T05:04:34.653Z,9.93
2018-04-22T05:07:02.098Z,10.00
2018-04-22T05:09:29.537Z,10.80
2018-04-22T05:11:56.978Z,10.80
2018-04-22T05:14:24.414Z,10.27
2018-04-22T05:16:52.620Z,10.87
2018-04-22T05:19:20.052Z,10.27
2018-04-22T05:21:47.494Z,11.60
2018-04-22T05:24:14.978Z,10.57
2018-04-22T05:26:42.381Z,10.97
2018-04-22T05:29:09.821Z,11.10
2018-04-22T05:31:38.023Z,9.10
2018-04-22T05:34:05.458Z,10.20
2018-04-22T05:36:32.975Z,10.97
2018-04-22T05:39:00.333Z,11.67
2018-04-22T05:41:27.777Z,10.17
2018-04-22T05:43:55.224Z,10.67
2018-04-22T05:46:23.421Z,10.50
2018-04-22T05:48:51.618Z,9.67
2018-04-22T05:51:19.830Z,10.50
2018-04-22T05:53:47.262Z,10.57
2018-04-22T05:56:14.706Z,11.17
2018-04-22T05:58:42.145Z,10.80
2018-04-22T06:01:10.354Z,11.93
2018-04-22T06:03:38.562Z,10.20
2018-04-22T06:06:06.006Z,10.03
2018-04-22T06:08:33.471Z,12.00
2018-04-22T06:11:01.155Z,10.20
2018-04-22T06:13:28.574Z,10.70
2018-04-22T06:15:56.781Z,11.83
2018-04-22T06:18:24.981Z,10.40
2018-04-22T06:20:53.205Z,11.90
2018-04-22T06:23:20.641Z,13.23
2018-04-22T06:25:48.073Z,12.60
2018-04-22T06:28:15.523Z,12.40
2018-04-22T06:30:43.722Z,11.70
2018-04-22T06:33:11.930Z,11.43
2018-04-22T06:35:39.373Z,11.73
2018-04-22T06:38:06.809Z,12.73
2018-04-22T06:40:34.242Z,13.87
2018-04-22T06:43:02.459Z,13.27
2018-04-22T06:45:30.675Z,13.13
2018-04-22T06:47:58.885Z,14.33
2018-04-22T06:50:26.322Z,12.20
2018-04-22T06:52:54.533Z,12.73
2018-04-22T06:55:22.733Z,12.30
2018-04-22T06:57:50.941Z,13.60
2018-04-22T07:00:18.373Z,12.53
2018-04-22T07:02:45.821Z,12.70
2018-04-22T07:05:13.258Z,12.07
2018-04-22T07:07:40.701Z,12.83
2018-04-22T07:10:08.137Z,13.40
2018-04-22T07:12:36.361Z,13.90
2018-04-22T07:15:03.797Z,13.43
2018-04-22T07:17:31.239Z,12.60
2018-04-22T07:19:58.677Z,12.13
2018-04-22T07:22:26.889Z,13.10
2018-04-22T07:24:54.320Z,11.67
2018-04-22T07:27:21.761Z,12.83
2018-04-22T07:29:49.195Z,11.80
2018-04-22T07:32:16.666Z,12.30
2018-04-22T07:34:44.074Z,11.80
2018-04-22T07:37:12.285Z,10.30
2018-04-22T07:39:39.718Z,9.67
2018-04-22T07:42:07.162Z,9.43
2018-04-22T07:44:34.596Z,6.30
2018-04-22T07:47:02.034Z,5.30
2018-04-22T07:49:29.465Z,5.10
2018-04-22T07:51:57.669Z,5.00
2018-04-22T07:54:25.866Z,4.87
2018-04-22T07:56:54.069Z,5.17
2018-04-22T07:59:22.265Z,5.20
2018-04-22T08:01:50.472Z,4.70
2018-04-22T08:04:18.665Z,5.13
2018-04-22T08:06:46.911Z,5.60
2018-04-22T08:09:15.070Z,5.40
2018-04-22T08:11:43.265Z,5.00
2018-04-22T08:14:11.466Z,4.30
2018-04-22T08:16:39.665Z,4.90
2018-04-22T08:19:07.862Z,4.30
2018-04-22T08:21:36.069Z,4.80
2018-04-22T08:24:03.497Z,4.33
2018-04-22T08:26:30.929Z,4.30
2018-04-22T08:28:58.374Z,4.57
2018-04-22T08:31:25.802Z,4.17
2018-04-22T08:33:53.242Z,4.53
2018-04-22T08:36:20.664Z,5.13
2018-04-22T08:38:48.105Z,4.80
2018-04-22T08:41:15.533Z,5.40
2018-04-22T08:43:43.333Z,4.60
2018-04-22T08:46:10.766Z,6.20
2018-04-22T08:48:38.964Z,4.83
2018-04-22T08:51:07.165Z,5.33
2018-04-22T08:53:35.373Z,5.23
2018-04-22T08:56:03.561Z,4.90
2018-04-22T08:58:31.774Z,5.27
2018-04-22T09:00:59.966Z,5.00
2018-04-22T09:03:28.169Z,4.70
2018-04-22T09:05:55.601Z,5.70
2018-04-22T09:08:23.037Z,5.30
2018-04-22T09:10:50.518Z,4.00
2018-04-22T09:13:17.901Z,4.90
2018-04-22T09:15:45.333Z,4.90
2018-04-22T09:18:12.774Z,5.30
2018-04-22T09:20:40.256Z,4.77
2018-04-22T09:23:07.698Z,4.27
2018-04-22T09:25:35.937Z,4.60
2018-04-22T09:28:03.374Z,4.60
2018-04-22T09:30:30.801Z,4.77
2018-04-22T09:32:58.246Z,4.40
2018-04-22T09:35:26.446Z,4.13
2018-04-22T09:37:54.655Z,5.63
2018-04-22T09:40:22.082Z,4.50
2018-04-22T09:42:49.526Z,5.07
2018-04-22T09:45:16.952Z,4.73
2018-04-22T09:47:44.389Z,5.23
2018-04-22T09:50:11.818Z,4.90
2018-04-22T09:52:39.261Z,4.70
2018-04-22T09:55:06.690Z,5.00
2018-04-22T09:57:34.137Z,4.60
2018-04-22T10:00:01.576Z,5.10
2018-04-22T10:02:32.655Z,4.80
2018-04-22T10:05:05.705Z,5.40
2018-04-22T10:07:33.145Z,5.40
2018-04-22T10:10:00.578Z,6.00
2018-04-22T10:12:28.017Z,4.83
2018-04-22T10:14:55.461Z,5.03
2018-04-22T10:17:22.900Z,4.83
2018-04-22T10:19:50.333Z,11.40
2018-04-22T10:22:18.537Z,8.53
2018-04-22T10:24:46.729Z,4.20
2018-04-22T10:27:14.946Z,6.30
2018-04-22T10:29:42.377Z,5.13
2018-04-22T10:32:09.798Z,4.70
2018-04-22T10:34:37.243Z,24.53
2018-04-22T10:37:04.673Z,5.13
2018-04-22T10:39:32.153Z,5.07
2018-04-22T10:41:59.601Z,5.00
2018-04-22T10:44:27.029Z,4.83
2018-04-22T10:46:54.457Z,4.33
2018-04-22T10:49:21.893Z,4.30
2018-04-22T10:51:49.317Z,3.60
2018-04-22T10:54:16.754Z,4.20
2018-04-22T10:56:44.190Z,4.20
2018-04-22T10:59:12.445Z,4.50
2018-04-22T11:01:40.577Z,4.30
2018-04-22T11:04:08.038Z,4.70
2018-04-22T11:06:35.467Z,5.07
2018-04-22T11:09:02.906Z,4.60
2018-04-22T11:11:30.341Z,4.23
2018-04-22T11:13:57.777Z,4.27
2018-04-22T11:16:25.205Z,4.20
2018-04-22T11:18:52.646Z,4.97
2018-04-22T11:21:20.852Z,3.80
2018-04-22T11:23:49.049Z,4.73
2018-04-22T11:26:17.250Z,4.00
2018-04-22T11:28:45.454Z,3.73
2018-04-22T11:31:13.653Z,4.23
2018-04-22T11:33:41.857Z,3.60
2018-04-22T11:36:09.289Z,3.70
2018-04-22T11:38:36.721Z,3.93
2018-04-22T11:41:04.157Z,4.03
2018-04-22T11:43:31.581Z,4.43
2018-04-22T11:45:59.027Z,4.40
2018-04-22T11:48:26.454Z,4.67
2018-04-22T11:50:53.889Z,3.60
2018-04-22T11:53:21.317Z,4.20
2018-04-22T11:55:48.756Z,3.10
2018-04-22T11:58:16.177Z,3.90
2018-04-22T12:00:43.612Z,3.30
2018-04-22T12:03:11.045Z,3.27
2018-04-22T12:05:38.489Z,3.50
2018-04-22T12:08:06.690Z,3.63
2018-04-22T12:10:34.899Z,3.90
2018-04-22T12:13:02.339Z,3.17
2018-04-22T12:15:29.770Z,3.40
2018-04-22T12:17:57.201Z,3.93
2018-04-22T12:20:24.647Z,3.83
2018-04-22T12:22:52.065Z,3.83
2018-04-22T12:25:19.503Z,3.63
2018-04-22T12:27:46.929Z,3.53
2018-04-22T12:30:14.371Z,3.70
2018-04-22T12:32:41.801Z,2.87
2018-04-22T12:35:09.240Z,3.53
2018-04-22T12:37:36.669Z,3.57
2018-04-22T12:40:04.886Z,4.43
2018-04-22T12:42:32.316Z,4.70
2018-04-22T12:44:59.742Z,3.80
2018-04-22T12:47:27.945Z,3.10
2018-04-22T12:49:55.373Z,4.03
2018-04-22T12:52:22.811Z,4.80
2018-04-22T12:54:50.243Z,3.63
2018-04-22T12:57:17.685Z,4.13
2018-04-22T12:59:45.117Z,3.70
2018-04-22T13:02:12.557Z,3.43
2018-04-22T13:04:39.981Z,3.50
2018-04-22T13:07:07.426Z,3.53
2018-04-22T13:09:34.849Z,3.80
2018-04-22T13:12:03.053Z,3.70
2018-04-22T13:14:31.254Z,4.20
2018-04-22T13:16:59.460Z,4.03
2018-04-22T13:19:27.659Z,3.83
2018-04-22T13:21:55.869Z,3.50
2018-04-22T13:24:23.297Z,3.90
2018-04-22T13:26:50.737Z,3.83
2018-04-22T13:29:18.166Z,3.53
2018-04-22T13:31:45.610Z,3.33
2018-04-22T13:34:13.037Z,3.33
2018-04-22T13:36:40.473Z,4.03
2018-04-22T13:39:08.671Z,3.50
2018-04-22T13:41:36.877Z,3.90
2018-04-22T13:44:04.301Z,3.83
2018-04-22T13:46:31.761Z,3.50
2018-04-22T13:48:59.233Z,3.63
2018-04-22T13:51:26.677Z,3.30
2018-04-22T13:53:54.913Z,3.43
2018-04-22T13:56:22.397Z,3.07
2018-04-22T13:58:49.821Z,3.20
2018-04-22T14:01:17.265Z,3.30
2018-04-22T14:03:44.697Z,3.50
2018-04-22T14:06:12.138Z,3.47
2018-04-22T14:08:39.568Z,4.03
2018-04-22T14:11:07.806Z,3.30
2018-04-22T14:13:35.233Z,3.60
2018-04-22T14:16:02.673Z,3.33
2018-04-22T14:18:30.106Z,4.27
2018-04-22T14:20:58.305Z,3.60
2018-04-22T14:23:25.747Z,3.40
2018-04-22T14:25:53.177Z,3.67
2018-04-22T14:28:21.377Z,3.90
2018-04-22T14:30:48.806Z,3.63
2018-04-22T14:33:16.245Z,3.70
2018-04-22T14:35:43.673Z,3.80
2018-04-22T14:38:11.113Z,3.17
2018-04-22T14:40:38.545Z,3.80
2018-04-22T14:43:05.982Z,3.43
2018-04-22T14:45:45.165Z,3.70
2018-04-22T14:48:12.617Z,5.53
2018-04-22T14:50:40.049Z,4.07
2018-04-22T14:53:07.477Z,3.40
2018-04-22T14:55:34.913Z,3.50
2018-04-22T14:58:02.358Z,3.70
2018-04-22T15:00:29.785Z,4.10
2018-04-22T15:02:57.994Z,4.17
2018-04-22T15:05:26.189Z,3.80
2018-04-22T15:07:54.397Z,3.47
2018-04-22T15:10:22.590Z,4.67
2018-04-22T15:12:50.798Z,4.83
2018-04-22T15:15:18.225Z,4.43
2018-04-22T15:17:45.656Z,4.03
2018-04-22T15:20:13.084Z,4.20
2018-04-22T15:22:40.525Z,4.20
2018-04-22T15:25:07.949Z,3.60
2018-04-22T15:27:35.392Z,4.43
2018-04-22T15:30:02.822Z,4.30
2018-04-22T15:32:30.261Z,7.13
2018-04-22T15:34:57.741Z,4.40
2018-04-22T15:37:25.189Z,4.00
2018-04-22T15:39:53.382Z,3.43
2018-04-22T15:42:21.590Z,4.17
2018-04-22T15:44:49.786Z,3.90
2018-04-22T15:47:17.994Z,3.70
2018-04-22T15:49:46.189Z,3.83
2018-04-22T15:52:14.398Z,3.37
2018-04-22T15:54:41.829Z,4.00
2018-04-22T15:57:09.270Z,3.90
2018-04-22T15:59:36.701Z,4.07
2018-04-22T16:02:04.169Z,4.40
2018-04-22T16:04:31.599Z,3.97
2018-04-22T16:06:59.038Z,4.30
2018-04-22T16:09:26.461Z,3.67
2018-04-22T16:11:53.889Z,3.87
2018-04-22T16:14:21.399Z,3.70
2018-04-22T16:16:48.757Z,3.90
2018-04-22T16:19:16.202Z,4.00
2018-04-22T16:21:43.639Z,3.97
2018-04-22T16:24:11.078Z,3.73
2018-04-22T16:26:38.519Z,3.17
2018-04-22T16:29:06.718Z,3.80
2018-04-22T16:31:34.182Z,4.87
2018-04-22T16:34:02.378Z,3.53
2018-04-22T16:36:30.577Z,4.17
2018-04-22T16:38:58.790Z,4.10
2018-04-22T16:41:27.023Z,3.47
2018-04-22T16:43:55.190Z,4.07
2018-04-22T16:46:23.391Z,3.60
2018-04-22T16:48:51.593Z,3.60
2018-04-22T16:51:19.017Z,3.10
2018-04-22T16:53:46.457Z,3.40
2018-04-22T16:56:13.894Z,3.77
2018-04-22T16:58:41.335Z,3.70
2018-04-22T17:01:08.757Z,3.73
2018-04-22T17:03:36.197Z,3.60
2018-04-22T17:06:03.625Z,3.53
2018-04-22T17:08:31.062Z,3.63
2018-04-22T17:10:58.485Z,3.90
2018-04-22T17:13:25.926Z,3.70
2018-04-22T17:15:53.356Z,3.50
2018-04-22T17:18:21.558Z,3.97
2018-04-22T17:20:49.757Z,3.77
2018-04-22T17:23:17.969Z,3.80
2018-04-22T17:25:46.158Z,3.90
2018-04-22T17:28:14.369Z,3.83
2018-04-22T17:30:42.570Z,3.50
2018-04-22T17:33:10.769Z,3.57
2018-04-22T17:35:38.205Z,3.70
2018-04-22T17:38:05.641Z,4.03
2018-04-22T17:40:33.065Z,4.37
2018-04-22T17:43:00.501Z,3.50
2018-04-22T17:45:27.926Z,3.43
2018-04-22T17:47:55.361Z,3.50
2018-04-22T17:50:22.785Z,3.70
2018-04-22T17:52:50.232Z,3.63
2018-04-22T17:55:17.657Z,3.97
2018-04-22T17:57:45.098Z,3.60
2018-04-22T18:00:12.532Z,3.77
2018-04-22T18:02:39.969Z,3.83
2018-04-22T18:05:07.411Z,3.43
2018-04-22T18:07:35.612Z,3.83
2018-04-22T18:10:03.050Z,4.20
2018-04-22T18:12:30.481Z,3.80
2018-04-22T18:14:57.917Z,3.83
2018-04-22T18:17:25.345Z,3.80
2018-04-22T18:19:52.785Z,3.77
2018-04-22T18:22:20.217Z,3.60
2018-04-22T18:24:47.708Z,3.60
2018-04-22T18:27:15.146Z,4.30
2018-04-22T18:29:43.350Z,4.13
2018-04-22T18:32:11.545Z,4.83
2018-04-22T18:34:39.747Z,3.60
2018-04-22T18:37:07.941Z,4.17
2018-04-22T18:39:36.149Z,3.93
2018-04-22T18:42:04.346Z,3.93
2018-04-22T18:44:32.600Z,4.40
2018-04-22T18:46:59.985Z,3.80
2018-04-22T18:49:27.422Z,4.80
2018-04-22T18:51:54.849Z,4.60
2018-04-22T18:54:22.293Z,4.20
2018-04-22T18:56:49.716Z,4.00
2018-04-22T18:59:17.166Z,4.47
2018-04-22T19:01:44.587Z,4.00
2018-04-22T19:04:12.023Z,4.40
2018-04-22T19:06:39.453Z,4.30
2018-04-22T19:09:06.889Z,4.27
2018-04-22T19:11:34.317Z,4.17
2018-04-22T19:14:02.517Z,4.07
2018-04-22T19:16:30.714Z,4.07
2018-04-22T19:18:58.922Z,5.43
2018-04-22T19:21:27.116Z,5.17
2018-04-22T19:23:55.318Z,4.97
2018-04-22T19:26:23.513Z,5.80
2018-04-22T19:28:51.709Z,4.67
2018-04-22T19:31:19.905Z,5.40
2018-04-22T19:33:48.113Z,4.60
2018-04-22T19:36:16.314Z,5.00
2018-04-22T19:38:44.515Z,5.27
2018-04-22T19:41:11.946Z,4.77
2018-04-22T19:43:39.382Z,5.77
2018-04-22T19:46:06.813Z,4.50
2018-04-22T19:48:34.270Z,4.47
2018-04-22T19:51:01.702Z,4.50
2018-04-22T19:53:29.913Z,6.17
2018-04-22T19:55:58.118Z,5.90
2018-04-22T19:58:25.553Z,5.63
2018-04-22T20:00:52.986Z,4.77
2018-04-22T20:03:20.425Z,6.40
2018-04-22T20:05:47.862Z,6.07
2018-04-22T20:08:15.294Z,5.37
2018-04-22T20:10:42.733Z,5.10
2018-04-22T20:13:10.161Z,5.27
2018-04-22T20:15:38.393Z,4.87
2018-04-22T20:18:06.558Z,5.53
2018-04-22T20:20:34.758Z,5.20
2018-04-22T20:23:02.958Z,4.20
2018-04-22T20:25:31.162Z,4.60
2018-04-22T20:27:59.358Z,6.13
2018-04-22T20:30:27.561Z,4.63
2018-04-22T20:32:55.758Z,5.07
2018-04-22T20:35:23.967Z,5.37
2018-04-22T20:37:51.389Z,5.53
2018-04-22T20:40:18.829Z,5.47
2018-04-22T20:42:46.257Z,4.97
2018-04-22T20:45:13.700Z,5.53
2018-04-22T20:47:41.121Z,5.20
2018-04-22T20:50:08.557Z,5.20
2018-04-22T20:52:35.993Z,5.83
2018-04-22T20:55:03.425Z,5.33
2018-04-22T20:57:30.857Z,4.90
2018-04-22T20:59:58.289Z,5.80
2018-04-22T21:02:25.730Z,4.70
2018-04-22T21:04:53.157Z,5.50
2018-04-22T21:07:20.590Z,4.67
2018-04-22T21:09:48.021Z,4.63
2018-04-22T21:12:15.458Z,5.30
2018-04-22T21:14:43.657Z,5.90
2018-04-22T21:17:11.858Z,4.97
2018-04-22T21:19:40.057Z,5.10
2018-04-22T21:22:08.257Z,6.10
2018-04-22T21:24:35.694Z,4.90
2018-04-22T21:27:03.126Z,5.20
2018-04-22T21:29:31.329Z,4.80
2018-04-22T21:31:58.753Z,5.03
2018-04-22T21:34:26.202Z,5.87
2018-04-22T21:36:53.637Z,4.63
2018-04-22T21:39:21.072Z,5.13
2018-04-22T21:41:48.505Z,5.60
2018-04-22T21:44:15.949Z,5.60
2018-04-22T21:46:43.373Z,4.90
2018-04-22T21:49:11.580Z,4.77
2018-04-22T21:51:39.782Z,5.43
2018-04-22T21:54:07.985Z,5.80
2018-04-22T21:56:35.420Z,5.63
2018-04-22T21:59:02.869Z,4.83
2018-04-22T22:01:30.293Z,6.10
2018-04-22T22:03:57.744Z,5.40
2018-04-22T22:06:25.173Z,5.00
2018-04-22T22:08:53.374Z,5.20
2018-04-22T22:11:21.577Z,5.10
2018-04-22T22:13:49.777Z,5.30
2018-04-22T22:16:17.984Z,5.80
2018-04-22T22:18:46.182Z,5.93
2018-04-22T22:21:13.625Z,5.20
2018-04-22T22:23:41.054Z,4.93
2018-04-22T22:26:08.485Z,5.50
2018-04-22T22:28:35.918Z,5.07
2018-04-22T22:31:03.358Z,5.57
2018-04-22T22:33:30.791Z,5.27
2018-04-22T22:35:58.229Z,5.33
2018-04-22T22:38:26.433Z,5.67
2018-04-22T22:40:54.641Z,4.90
2018-04-22T22:43:22.840Z,5.10
2018-04-22T22:45:51.041Z,4.90
2018-04-22T22:48:18.478Z,5.10
2018-04-22T22:50:45.909Z,5.10
2018-04-22T22:53:13.429Z,5.80
2018-04-22T22:55:40.778Z,5.40
2018-04-22T22:58:08.201Z,5.40
2018-04-22T23:00:35.642Z,5.90
2018-04-22T23:03:03.068Z,6.00
2018-04-22T23:05:30.509Z,5.90
2018-04-22T23:07:57.938Z,5.40
2018-04-22T23:10:25.378Z,6.50
2018-04-22T23:12:52.801Z,5.53
2018-04-22T23:15:20.242Z,5.80
2018-04-22T23:17:47.674Z,5.83
2018-04-22T23:20:15.885Z,5.63
2018-04-22T23:22:44.083Z,5.67
2018-04-22T23:25:12.291Z,5.70
2018-04-22T23:27:40.481Z,5.80
2018-04-22T23:30:08.693Z,5.77
2018-04-22T23:32:36.119Z,5.60
2018-04-22T23:35:03.575Z,6.30
2018-04-22T23:37:30.993Z,5.33
2018-04-22T23:39:58.433Z,6.27
2018-04-22T23:42:25.861Z,6.40
2018-04-22T23:44:53.292Z,6.10
2018-04-22T23:47:20.730Z,5.77
2018-04-22T23:49:48.158Z,6.13
2018-04-22T23:52:15.581Z,6.37
2018-04-22T23:54:43.026Z,6.53
2018-04-22T23:57:10.461Z,5.93
2018-04-22T23:59:38.661Z,5.83
